Time;durP1;ratioP1;P1;durP2;ratioP2;P2;SDS_P1;SDS_P2;PMS_P1;PMS_P2;Temp;Humidity;BMP_temperature;BMP_pressure;BME280_temperature;BME280_humidity;BME280_pressure;Samples;Min_cycle;Max_cycle;Signal;HPM_P1;HPM_P2
2023/10/06 00:00:44;;;;;;;10.45;5.80;;;;;;;;;;5079222;28;20147;-60
2023/10/06 00:03:16;;;;;;;12.68;5.93;;;;;;;;;;5082305;28;20080;-59
2023/10/06 00:05:44;;;;;;;11.55;5.40;;;;;;;;;;5082901;28;20106;-61
2023/10/06 00:08:11;;;;;;;6.47;4.47;;;;;;;;;;5081664;28;20110;-59
2023/10/06 00:10:44;;;;;;;11.10;5.10;;;;;;;;;;5081658;28;20056;-60
2023/10/06 00:13:12;;;;;;;11.48;5.97;;;;;;;;;;5080396;28;20116;-59
2023/10/06 00:15:39;;;;;;;9.65;5.70;;;;;;;;;;5081291;28;20051;-60
2023/10/06 00:18:10;;;;;;;10.35;4.75;;;;;;;;;;5080933;28;20049;-60
2023/10/06 00:20:45;;;;;;;13.93;5.45;;;;;;;;;;5078130;28;20056;-59
2023/10/06 00:23:14;;;;;;;13.68;5.07;;;;;;;;;;5081497;28;20053;-60
2023/10/06 00:25:42;;;;;;;12.77;5.57;;;;;;;;;;5088113;28;20131;-61
2023/10/06 00:28:22;;;;;;;11.13;5.80;;;;;;;;;;5092456;27;20557;-60
2023/10/06 00:30:58;;;;;;;9.90;5.65;;;;;;;;;;5088645;27;20589;-61
2023/10/06 00:33:27;;;;;;;9.18;5.50;;;;;;;;;;5085387;27;20681;-60
2023/10/06 00:35:54;;;;;;;9.15;5.18;;;;;;;;;;5069326;28;20055;-59
2023/10/06 00:38:21;;;;;;;10.35;5.05;;;;;;;;;;5076705;28;20060;-61
2023/10/06 00:40:55;;;;;;;11.38;5.60;;;;;;;;;;5098126;27;20123;-60
2023/10/06 00:43:30;;;;;;;12.02;6.20;;;;;;;;;;5081416;28;20519;-59
2023/10/06 00:46:00;;;;;;;12.43;6.18;;;;;;;;;;5081725;28;20057;-61
2023/10/06 00:48:29;;;;;;;11.02;5.75;;;;;;;;;;5085632;28;20055;-59
2023/10/06 00:50:57;;;;;;;12.40;5.20;;;;;;;;;;5084714;28;20512;-60
2023/10/06 00:53:31;;;;;;;11.88;5.90;;;;;;;;;;5084813;28;20062;-60
2023/10/06 00:56:10;;;;;;;11.07;5.93;;;;;;;;;;5083089;28;20549;-59
2023/10/06 00:58:43;;;;;;;19.90;6.57;;;;;;;;;;5066495;28;20056;-58
2023/10/06 01:01:17;;;;;;;9.52;5.40;;;;;;;;;;5082504;28;20564;-59
2023/10/06 01:03:48;;;;;;;11.65;5.70;;;;;;;;;;5084450;28;20514;-60
2023/10/06 01:06:22;;;;;;;13.98;6.03;;;;;;;;;;5085121;28;20130;-61
2023/10/06 01:09:05;;;;;;;15.57;6.00;;;;;;;;;;5078699;28;20513;-60
2023/10/06 01:11:40;;;;;;;9.27;5.18;;;;;;;;;;5084829;28;20052;-60
2023/10/06 01:14:07;;;;;;;12.13;5.88;;;;;;;;;;5069115;28;20059;-57
2023/10/06 01:16:38;;;;;;;9.88;5.50;;;;;;;;;;5084239;28;20155;-59
2023/10/06 01:19:14;;;;;;;11.80;5.32;;;;;;;;;;5082836;28;20053;-60
2023/10/06 01:21:47;;;;;;;8.18;4.70;;;;;;;;;;5084474;28;20534;-60
2023/10/06 01:24:15;;;;;;;14.88;4.97;;;;;;;;;;5084324;28;20059;-60
2023/10/06 01:26:41;;;;;;;8.75;4.97;;;;;;;;;;5084232;28;20072;-60
2023/10/06 01:29:10;;;;;;;10.30;5.05;;;;;;;;;;5082989;28;20415;-59
2023/10/06 01:31:41;;;;;;;11.20;5.53;;;;;;;;;;5082080;28;20052;-59
2023/10/06 01:34:08;;;;;;;10.65;5.13;;;;;;;;;;5070073;28;20518;-59
2023/10/06 01:36:38;;;;;;;13.95;5.90;;;;;;;;;;5081605;28;20106;-60
2023/10/06 01:39:05;;;;;;;9.23;4.55;;;;;;;;;;5082832;28;20138;-59
2023/10/06 01:41:34;;;;;;;12.23;4.97;;;;;;;;;;5083694;28;20053;-60
2023/10/06 01:44:10;;;;;;;8.45;5.07;;;;;;;;;;5067493;28;20742;-60
2023/10/06 01:46:39;;;;;;;12.90;5.10;;;;;;;;;;5078806;28;20053;-60
2023/10/06 01:49:10;;;;;;;8.88;5.18;;;;;;;;;;5075240;28;20491;-59
2023/10/06 01:51:40;;;;;;;9.70;5.32;;;;;;;;;;5080035;28;20056;-60
2023/10/06 01:54:14;;;;;;;9.73;4.65;;;;;;;;;;5081910;28;20045;-60
2023/10/06 01:56:42;;;;;;;13.10;4.75;;;;;;;;;;5082279;28;20080;-60
2023/10/06 01:59:12;;;;;;;10.02;5.38;;;;;;;;;;5074151;28;20052;-59
2023/10/06 02:01:40;;;;;;;10.23;5.22;;;;;;;;;;5081961;28;20127;-60
2023/10/06 02:04:10;;;;;;;10.60;4.90;;;;;;;;;;5084181;28;20133;-60
2023/10/06 02:06:38;;;;;;;7.88;4.80;;;;;;;;;;5083487;28;20053;-59
2023/10/06 02:09:18;;;;;;;10.30;5.35;;;;;;;;;;5082451;28;20060;-60
2023/10/06 02:11:44;;;;;;;7.90;5.05;;;;;;;;;;5084399;28;20053;-61
2023/10/06 02:14:13;;;;;;;13.00;5.20;;;;;;;;;;5083200;28;20052;-60
2023/10/06 02:16:40;;;;;;;9.57;4.82;;;;;;;;;;5081563;28;20083;-59
2023/10/06 02:19:11;;;;;;;10.23;4.85;;;;;;;;;;5080695;28;20084;-60
2023/10/06 02:21:42;;;;;;;10.38;4.90;;;;;;;;;;5097978;27;20056;-58
2023/10/06 02:24:09;;;;;;;13.30;5.38;;;;;;;;;;5083108;28;20062;-60
2023/10/06 02:26:36;;;;;;;10.05;4.97;;;;;;;;;;5085490;28;20554;-60
2023/10/06 02:29:11;;;;;;;13.07;5.03;;;;;;;;;;5082938;28;20063;-60
2023/10/06 02:31:37;;;;;;;10.88;4.68;;;;;;;;;;5082476;28;20059;-60
2023/10/06 02:34:11;;;;;;;14.65;4.95;;;;;;;;;;5080215;28;20538;-58
2023/10/06 02:36:38;;;;;;;12.95;5.18;;;;;;;;;;5070656;28;20072;-59
2023/10/06 02:39:06;;;;;;;10.20;5.22;;;;;;;;;;5079199;28;20052;-60
2023/10/06 02:41:34;;;;;;;13.05;5.50;;;;;;;;;;5083593;28;20048;-59
2023/10/06 02:44:13;;;;;;;13.48;5.53;;;;;;;;;;5080767;28;20044;-60
2023/10/06 02:46:41;;;;;;;10.90;6.13;;;;;;;;;;5083269;28;20057;-60
2023/10/06 02:49:09;;;;;;;15.75;6.60;;;;;;;;;;5082382;28;20542;-57
2023/10/06 02:51:47;;;;;;;10.30;5.78;;;;;;;;;;5080386;28;20060;-60
2023/10/06 02:56:46;;;;;;;13.13;5.97;;;;;;;;;;5082643;28;20143;-60
2023/10/06 02:59:21;;;;;;;10.50;6.43;;;;;;;;;;5073124;28;20538;-59
2023/10/06 03:01:57;;;;;;;14.13;5.43;;;;;;;;;;5082193;28;20053;-60
2023/10/06 03:04:28;;;;;;;11.80;5.93;;;;;;;;;;5077277;28;20081;-64
2023/10/06 03:06:58;;;;;;;14.57;5.63;;;;;;;;;;5069720;28;20054;-60
2023/10/06 03:09:38;;;;;;;16.60;6.15;;;;;;;;;;5080135;28;20113;-60
2023/10/06 03:12:11;;;;;;;12.05;7.20;;;;;;;;;;5082206;28;20525;-60
2023/10/06 03:14:38;;;;;;;19.60;7.38;;;;;;;;;;5082154;28;20049;-60
2023/10/06 03:17:06;;;;;;;10.18;5.45;;;;;;;;;;5082033;28;20088;-61
2023/10/06 03:19:33;;;;;;;17.10;6.45;;;;;;;;;;5075915;28;21247;-60
2023/10/06 03:22:04;;;;;;;12.88;6.30;;;;;;;;;;5082065;28;20057;-60
2023/10/06 03:24:31;;;;;;;9.95;6.53;;;;;;;;;;5081958;28;20049;-59
2023/10/06 03:26:58;;;;;;;12.73;7.28;;;;;;;;;;5068889;28;20053;-57
2023/10/06 03:30:17;;;;;;;13.65;6.80;;;;;;;;;;5081144;28;20048;-58
2023/10/06 03:32:20;;;;;;;19.77;7.47;;;;;;;;;;5065049;28;20053;-60
2023/10/06 03:34:47;;;;;;;12.77;6.40;;;;;;;;;;5082394;28;20932;-60
2023/10/06 03:37:16;;;;;;;13.85;7.10;;;;;;;;;;5081878;28;20293;-60
2023/10/06 03:39:50;;;;;;;16.65;6.70;;;;;;;;;;5070748;28;20189;-60
2023/10/06 03:42:20;;;;;;;12.52;6.65;;;;;;;;;;5081083;28;20059;-60
2023/10/06 03:44:52;;;;;;;14.02;6.55;;;;;;;;;;5081595;28;20052;-60
2023/10/06 03:47:19;;;;;;;16.90;7.13;;;;;;;;;;5080260;28;20148;-60
2023/10/06 03:49:47;;;;;;;13.50;6.72;;;;;;;;;;5079799;28;20059;-60
2023/10/06 03:52:15;;;;;;;14.68;7.10;;;;;;;;;;5077083;28;20052;-60
2023/10/06 03:54:42;;;;;;;10.88;5.63;;;;;;;;;;5081493;28;20088;-60
2023/10/06 03:57:11;;;;;;;13.05;6.20;;;;;;;;;;5079731;28;20049;-58
2023/10/06 03:59:39;;;;;;;14.45;7.03;;;;;;;;;;5074952;28;20067;-59
2023/10/06 04:02:05;;;;;;;13.57;6.35;;;;;;;;;;5070111;28;20049;-60
2023/10/06 04:04:32;;;;;;;10.07;5.97;;;;;;;;;;5080358;28;20142;-60
2023/10/06 04:06:59;;;;;;;12.23;6.22;;;;;;;;;;5082183;28;20063;-58
2023/10/06 04:09:28;;;;;;;15.15;6.55;;;;;;;;;;5076777;28;20503;-60
2023/10/06 04:12:00;;;;;;;11.82;6.78;;;;;;;;;;5065559;28;20052;-60
2023/10/06 04:14:31;;;;;;;13.70;7.70;;;;;;;;;;5073802;28;20059;-59
2023/10/06 04:17:01;;;;;;;13.95;6.65;;;;;;;;;;5076825;28;20052;-59
2023/10/06 04:19:27;;;;;;;13.50;6.32;;;;;;;;;;5075880;28;20130;-60
2023/10/06 04:21:54;;;;;;;15.38;6.45;;;;;;;;;;5085727;28;20048;-60
2023/10/06 04:24:20;;;;;;;17.30;7.13;;;;;;;;;;5083744;28;20060;-60
2023/10/06 04:26:46;;;;;;;8.38;5.85;;;;;;;;;;5083805;28;20057;-60
2023/10/06 04:29:13;;;;;;;14.18;6.20;;;;;;;;;;5070474;28;20098;-60
2023/10/06 04:31:40;;;;;;;13.82;6.80;;;;;;;;;;5079654;28;20063;-61
2023/10/06 04:34:07;;;;;;;11.98;5.70;;;;;;;;;;5073512;28;20049;-60
2023/10/06 04:36:34;;;;;;;11.57;5.82;;;;;;;;;;5078489;28;20462;-60
2023/10/06 04:39:00;;;;;;;12.73;5.45;;;;;;;;;;5067593;28;20053;-60
2023/10/06 04:41:27;;;;;;;15.38;6.20;;;;;;;;;;5084141;28;20655;-60
2023/10/06 04:43:53;;;;;;;9.18;5.63;;;;;;;;;;5084360;28;20056;-60
2023/10/06 04:46:19;;;;;;;13.07;6.15;;;;;;;;;;5084894;28;20052;-60
2023/10/06 04:48:48;;;;;;;13.10;5.60;;;;;;;;;;5092234;27;20489;-62
2023/10/06 04:51:15;;;;;;;15.23;6.22;;;;;;;;;;5070426;28;20064;-60
2023/10/06 04:53:44;;;;;;;13.15;5.72;;;;;;;;;;5079704;28;20506;-59
2023/10/06 04:56:10;;;;;;;32.00;6.85;;;;;;;;;;5085152;28;20064;-61
2023/10/06 04:58:39;;;;;;;13.10;6.32;;;;;;;;;;5084122;28;20052;-61
2023/10/06 05:01:07;;;;;;;15.73;6.28;;;;;;;;;;5085140;28;20131;-61
2023/10/06 05:03:43;;;;;;;15.35;5.57;;;;;;;;;;5084864;28;20548;-60
2023/10/06 05:06:15;;;;;;;13.00;6.32;;;;;;;;;;5085188;28;20507;-60
2023/10/06 05:08:46;;;;;;;8.32;5.25;;;;;;;;;;5083150;28;20658;-60
2023/10/06 05:11:17;;;;;;;9.35;5.72;;;;;;;;;;5085177;28;20055;-60
2023/10/06 05:13:44;;;;;;;11.15;5.53;;;;;;;;;;5084612;28;20052;-60
2023/10/06 05:16:11;;;;;;;11.85;6.88;;;;;;;;;;5085261;28;20076;-60
2023/10/06 05:18:41;;;;;;;14.98;5.82;;;;;;;;;;5084131;28;20060;-58
2023/10/06 05:21:07;;;;;;;13.90;6.50;;;;;;;;;;5085081;28;20084;-60
2023/10/06 05:23:37;;;;;;;9.35;4.95;;;;;;;;;;5084731;28;20572;-60
2023/10/06 05:26:07;;;;;;;12.65;5.63;;;;;;;;;;5085111;28;20048;-60
2023/10/06 05:28:37;;;;;;;15.35;6.68;;;;;;;;;;5078153;28;20076;-60
2023/10/06 05:31:10;;;;;;;14.65;6.57;;;;;;;;;;5082615;28;20487;-61
2023/10/06 05:33:37;;;;;;;13.32;6.00;;;;;;;;;;5083116;28;20454;-60
2023/10/06 05:36:10;;;;;;;12.10;5.50;;;;;;;;;;5085250;28;20573;-60
2023/10/06 05:38:37;;;;;;;13.73;6.07;;;;;;;;;;5084653;28;20522;-60
2023/10/06 05:41:08;;;;;;;14.13;5.97;;;;;;;;;;5082545;28;20052;-60
2023/10/06 05:43:34;;;;;;;8.50;5.50;;;;;;;;;;5091188;28;20052;-60
2023/10/06 05:46:03;;;;;;;13.48;5.78;;;;;;;;;;5081735;28;20048;-60
2023/10/06 05:48:30;;;;;;;10.77;6.00;;;;;;;;;;5079454;28;20462;-60
2023/10/06 05:51:04;;;;;;;10.13;5.90;;;;;;;;;;5084159;28;20075;-60
2023/10/06 05:53:38;;;;;;;12.52;5.82;;;;;;;;;;5085410;28;20057;-60
2023/10/06 05:56:07;;;;;;;11.68;6.25;;;;;;;;;;5073561;28;20419;-60
2023/10/06 05:58:37;;;;;;;12.05;5.90;;;;;;;;;;5083708;28;20167;-60
2023/10/06 06:01:11;;;;;;;12.60;6.70;;;;;;;;;;5071670;28;20052;-60
2023/10/06 06:03:45;;;;;;;10.85;6.10;;;;;;;;;;5084166;28;20052;-60
2023/10/06 06:06:21;;;;;;;12.43;5.93;;;;;;;;;;5080162;28;20057;-61
2023/10/06 06:08:49;;;;;;;12.40;5.82;;;;;;;;;;5063867;28;20126;-60
2023/10/06 06:11:15;;;;;;;17.58;6.82;;;;;;;;;;5070333;28;20057;-60
2023/10/06 06:13:42;;;;;;;12.75;5.40;;;;;;;;;;5084161;28;20497;-60
2023/10/06 06:16:10;;;;;;;10.32;5.43;;;;;;;;;;5083707;28;20060;-61
2023/10/06 06:18:37;;;;;;;15.27;6.60;;;;;;;;;;5083994;28;20057;-61
2023/10/06 06:21:05;;;;;;;16.70;6.47;;;;;;;;;;5074590;28;20509;-60
2023/10/06 06:23:35;;;;;;;14.18;5.80;;;;;;;;;;5083259;28;20060;-60
2023/10/06 06:26:02;;;;;;;16.42;6.60;;;;;;;;;;5067594;28;20518;-61
2023/10/06 06:28:28;;;;;;;14.05;6.18;;;;;;;;;;5073017;28;20050;-61
2023/10/06 06:30:55;;;;;;;11.93;6.28;;;;;;;;;;5065271;28;20111;-61
2023/10/06 06:33:25;;;;;;;9.90;6.40;;;;;;;;;;5093851;27;20056;-60
2023/10/06 06:35:52;;;;;;;15.02;7.00;;;;;;;;;;5083542;27;20059;-61
2023/10/06 06:38:18;;;;;;;16.50;6.47;;;;;;;;;;5083612;28;20548;-60
2023/10/06 06:40:46;;;;;;;15.18;6.60;;;;;;;;;;5065205;28;20049;-60
2023/10/06 06:43:12;;;;;;;11.13;5.70;;;;;;;;;;5083842;28;20044;-59
2023/10/06 06:45:42;;;;;;;10.52;5.82;;;;;;;;;;5068418;28;21097;-60
2023/10/06 06:48:19;;;;;;;11.02;5.93;;;;;;;;;;5079404;28;20098;-60
2023/10/06 06:50:48;;;;;;;11.32;6.20;;;;;;;;;;5083248;28;20507;-60
2023/10/06 06:53:18;;;;;;;12.88;5.63;;;;;;;;;;5083080;28;20072;-60
2023/10/06 06:55:46;;;;;;;12.05;6.35;;;;;;;;;;5080156;28;20527;-61
2023/10/06 06:58:16;;;;;;;13.18;6.05;;;;;;;;;;5072614;28;20052;-60
2023/10/06 07:00:43;;;;;;;11.75;5.82;;;;;;;;;;5081754;28;20130;-61
2023/10/06 07:03:10;;;;;;;10.85;6.60;;;;;;;;;;5075323;28;20052;-61
2023/10/06 07:05:38;;;;;;;12.65;5.80;;;;;;;;;;5073513;28;20566;-59
2023/10/06 07:08:05;;;;;;;15.32;6.05;;;;;;;;;;5081656;28;21007;-61
2023/10/06 07:10:32;;;;;;;16.77;6.38;;;;;;;;;;5074128;28;20575;-60
2023/10/06 07:13:00;;;;;;;15.40;6.30;;;;;;;;;;5079956;28;20056;-60
2023/10/06 07:15:30;;;;;;;25.25;6.63;;;;;;;;;;5082970;28;20610;-60
2023/10/06 07:17:57;;;;;;;13.05;5.75;;;;;;;;;;5083205;28;20048;-60
2023/10/06 07:20:27;;;;;;;16.88;5.70;;;;;;;;;;5075289;28;20059;-61
2023/10/06 07:22:54;;;;;;;10.80;5.43;;;;;;;;;;5076382;28;20060;-61
2023/10/06 07:25:26;;;;;;;12.20;5.75;;;;;;;;;;5080992;28;20052;-61
2023/10/06 07:27:55;;;;;;;11.93;5.55;;;;;;;;;;5082003;28;20140;-61
2023/10/06 07:30:22;;;;;;;10.27;5.38;;;;;;;;;;5082650;28;20156;-61
2023/10/06 07:32:51;;;;;;;11.07;4.88;;;;;;;;;;5082030;28;20059;-59
2023/10/06 07:35:18;;;;;;;12.60;5.50;;;;;;;;;;5080801;28;20076;-61
2023/10/06 07:37:47;;;;;;;8.82;5.35;;;;;;;;;;5097140;28;20082;-61
2023/10/06 07:40:15;;;;;;;11.32;4.75;;;;;;;;;;5067045;28;20076;-61
2023/10/06 07:42:46;;;;;;;9.98;5.43;;;;;;;;;;5075133;28;20083;-61
2023/10/06 07:45:12;;;;;;;18.10;5.90;;;;;;;;;;5078530;28;20140;-61
2023/10/06 07:47:40;;;;;;;13.82;5.82;;;;;;;;;;5082896;28;20061;-61
2023/10/06 07:50:07;;;;;;;8.27;4.60;;;;;;;;;;5082618;28;20086;-61
2023/10/06 07:52:35;;;;;;;9.65;4.88;;;;;;;;;;5078418;28;20052;-61
2023/10/06 07:55:05;;;;;;;11.82;5.65;;;;;;;;;;5068720;28;20053;-61
2023/10/06 07:57:34;;;;;;;11.27;5.10;;;;;;;;;;5073208;28;20839;-61
2023/10/06 08:00:04;;;;;;;9.13;4.90;;;;;;;;;;5082226;28;20048;-61
2023/10/06 08:02:30;;;;;;;10.15;4.85;;;;;;;;;;5082061;28;20059;-61
2023/10/06 08:04:57;;;;;;;9.95;4.50;;;;;;;;;;5069736;28;20531;-60
2023/10/06 08:07:30;;;;;;;10.80;4.85;;;;;;;;;;5071985;28;20506;-61
2023/10/06 08:09:58;;;;;;;12.57;5.82;;;;;;;;;;5073124;28;20049;-61
2023/10/06 08:12:24;;;;;;;15.02;5.70;;;;;;;;;;5072261;28;20053;-61
2023/10/06 08:14:51;;;;;;;11.10;5.00;;;;;;;;;;5069431;28;20051;-60
2023/10/06 08:17:19;;;;;;;10.27;4.40;;;;;;;;;;5070364;28;20052;-61
2023/10/06 08:19:48;;;;;;;9.52;5.25;;;;;;;;;;5080767;28;20506;-61
2023/10/06 08:22:15;;;;;;;9.88;5.88;;;;;;;;;;5077997;28;20100;-61
2023/10/06 08:24:43;;;;;;;12.88;4.13;;;;;;;;;;5068605;28;20048;-60
2023/10/06 08:27:11;;;;;;;7.57;4.20;;;;;;;;;;5072345;28;20048;-58
2023/10/06 08:29:38;;;;;;;9.25;3.92;;;;;;;;;;5061081;28;20561;-60
2023/10/06 08:32:06;;;;;;;12.05;4.93;;;;;;;;;;5065327;28;20056;-60
2023/10/06 08:34:37;;;;;;;10.45;4.95;;;;;;;;;;5095251;27;20056;-61
2023/10/06 08:37:10;;;;;;;9.35;4.70;;;;;;;;;;5080118;28;20067;-60
2023/10/06 08:39:40;;;;;;;10.77;4.88;;;;;;;;;;5079874;28;20048;-61
2023/10/06 08:42:10;;;;;;;12.80;5.10;;;;;;;;;;5082293;28;20052;-61
2023/10/06 08:44:38;;;;;;;10.20;4.50;;;;;;;;;;5064658;28;20060;-61
2023/10/06 08:47:07;;;;;;;13.10;5.35;;;;;;;;;;5066750;28;20488;-60
2023/10/06 08:49:53;;;;;;;15.50;4.88;;;;;;;;;;5077376;28;20056;-61
2023/10/06 08:52:22;;;;;;;10.63;3.83;;;;;;;;;;5082210;28;20488;-61
2023/10/06 08:54:49;;;;;;;12.48;4.47;;;;;;;;;;5079660;28;20543;-60
2023/10/06 08:57:15;;;;;;;12.80;4.47;;;;;;;;;;5078058;28;20052;-61
2023/10/06 08:59:42;;;;;;;13.40;4.85;;;;;;;;;;5075680;28;20144;-60
2023/10/06 09:02:09;;;;;;;10.98;4.20;;;;;;;;;;5080095;28;20579;-61
2023/10/06 09:04:37;;;;;;;10.18;5.15;;;;;;;;;;5081376;28;20114;-61
2023/10/06 09:07:17;;;;;;;7.68;4.88;;;;;;;;;;5068003;28;20595;-61
2023/10/06 09:09:43;;;;;;;14.18;4.85;;;;;;;;;;5066461;28;20130;-60
2023/10/06 09:12:26;;;;;;;10.68;4.32;;;;;;;;;;5084149;27;20063;-62
2023/10/06 09:14:56;;;;;;;10.23;4.00;;;;;;;;;;5085194;28;20055;-60
2023/10/06 09:17:33;;;;;;;11.63;4.32;;;;;;;;;;5085879;28;20084;-61
2023/10/06 09:20:00;;;;;;;11.85;4.55;;;;;;;;;;5084731;28;20056;-61
2023/10/06 09:22:29;;;;;;;13.48;4.40;;;;;;;;;;5084339;28;20053;-61
2023/10/06 09:24:59;;;;;;;12.73;5.15;;;;;;;;;;5080117;28;20438;-60
2023/10/06 09:27:26;;;;;;;9.50;4.45;;;;;;;;;;5069888;28;20060;-61
2023/10/06 09:29:58;;;;;;;10.85;4.93;;;;;;;;;;5068238;28;20393;-61
2023/10/06 09:32:24;;;;;;;11.15;4.57;;;;;;;;;;5067554;28;20064;-61
2023/10/06 09:34:57;;;;;;;12.00;4.63;;;;;;;;;;5065740;28;20140;-61
2023/10/06 09:37:26;;;;;;;9.43;4.57;;;;;;;;;;5069435;28;20045;-60
2023/10/06 09:39:57;;;;;;;10.60;5.22;;;;;;;;;;5084033;28;20106;-61
2023/10/06 09:42:30;;;;;;;10.27;4.57;;;;;;;;;;5088061;27;20106;-61
2023/10/06 09:45:15;;;;;;;8.55;3.97;;;;;;;;;;5082466;28;20056;-60
2023/10/06 09:47:48;;;;;;;12.55;4.88;;;;;;;;;;5084329;28;20057;-61
2023/10/06 09:50:16;;;;;;;12.98;4.40;;;;;;;;;;5084868;28;20060;-60
2023/10/06 09:52:44;;;;;;;8.45;4.45;;;;;;;;;;5083471;28;20056;-62
2023/10/06 09:55:11;;;;;;;13.15;4.70;;;;;;;;;;5083345;28;20052;-62
2023/10/06 09:57:39;;;;;;;11.55;4.88;;;;;;;;;;5078739;28;20052;-61
2023/10/06 10:00:15;;;;;;;8.43;4.15;;;;;;;;;;5069729;28;20060;-61
2023/10/06 10:02:45;;;;;;;12.48;4.43;;;;;;;;;;5071326;28;20143;-61
2023/10/06 10:05:13;;;;;;;13.27;7.28;;;;;;;;;;5079282;28;20052;-62
2023/10/06 10:07:43;;;;;;;10.38;4.22;;;;;;;;;;5083617;28;20056;-61
2023/10/06 10:10:11;;;;;;;10.25;4.40;;;;;;;;;;5083535;28;20145;-61
2023/10/06 10:12:56;;;;;;;8.50;4.35;;;;;;;;;;5084508;28;20564;-62
2023/10/06 10:15:40;;;;;;;12.05;4.60;;;;;;;;;;5084004;28;20057;-62
2023/10/06 10:18:17;;;;;;;9.93;3.77;;;;;;;;;;5071720;28;20041;-61
2023/10/06 10:20:46;;;;;;;15.07;4.32;;;;;;;;;;5083347;27;20483;-61
2023/10/06 10:23:14;;;;;;;12.35;4.57;;;;;;;;;;5084325;28;20575;-62
2023/10/06 10:25:40;;;;;;;8.13;3.30;;;;;;;;;;5083499;28;20052;-61
2023/10/06 10:28:14;;;;;;;9.50;4.10;;;;;;;;;;5090235;28;20675;-62
2023/10/06 10:30:53;;;;;;;10.68;4.28;;;;;;;;;;5103688;27;20581;-61
2023/10/06 10:33:21;;;;;;;9.82;4.22;;;;;;;;;;5076379;27;20060;-61
2023/10/06 10:36:06;;;;;;;10.50;4.40;;;;;;;;;;5063745;28;20064;-61
2023/10/06 10:38:33;;;;;;;11.57;3.75;;;;;;;;;;5074116;28;20064;-61
2023/10/06 10:41:01;;;;;;;6.45;3.35;;;;;;;;;;5083785;28;20396;-61
2023/10/06 10:43:27;;;;;;;10.15;3.83;;;;;;;;;;5070546;28;20123;-61
2023/10/06 10:45:54;;;;;;;8.90;3.85;;;;;;;;;;5069067;28;20083;-60
2023/10/06 10:48:31;;;;;;;11.55;4.18;;;;;;;;;;5072193;28;20483;-61
2023/10/06 10:50:59;;;;;;;17.75;5.13;;;;;;;;;;5070166;28;20057;-61
2023/10/06 10:53:33;;;;;;;12.63;4.10;;;;;;;;;;5071645;28;20525;-62
2023/10/06 10:56:01;;;;;;;9.15;3.90;;;;;;;;;;5073329;28;20139;-62
2023/10/06 10:58:40;;;;;;;7.60;3.60;;;;;;;;;;5082330;28;20099;-61
2023/10/06 11:01:45;;;;;;;8.57;3.92;;;;;;;;;;5083620;28;20080;-61
2023/10/06 11:04:18;;;;;;;9.07;4.07;;;;;;;;;;5078966;28;20060;-61
2023/10/06 11:06:46;;;;;;;11.07;3.85;;;;;;;;;;5062707;28;20065;-61
2023/10/06 11:09:26;;;;;;;8.13;3.83;;;;;;;;;;5077597;28;20320;-61
2023/10/06 11:11:56;;;;;;;9.95;3.97;;;;;;;;;;5082869;28;20077;-61
2023/10/06 11:14:43;;;;;;;8.05;3.70;;;;;;;;;;5082907;28;20689;-60
2023/10/06 11:17:11;;;;;;;12.07;4.13;;;;;;;;;;5076664;28;20049;-61
2023/10/06 11:19:39;;;;;;;15.15;3.90;;;;;;;;;;5096943;28;20132;-60
2023/10/06 11:22:10;;;;;;;10.07;3.85;;;;;;;;;;5103657;27;20515;-61
2023/10/06 11:24:40;;;;;;;9.77;3.17;;;;;;;;;;5103665;27;20051;-61
2023/10/06 11:27:14;;;;;;;10.20;3.10;;;;;;;;;;5103637;27;20052;-61
2023/10/06 11:29:41;;;;;;;5.57;3.08;;;;;;;;;;5102047;27;20521;-62
2023/10/06 11:32:07;;;;;;;7.35;3.17;;;;;;;;;;5094534;27;20049;-61
2023/10/06 11:34:34;;;;;;;7.65;2.47;;;;;;;;;;5082839;28;20053;-61
2023/10/06 11:37:02;;;;;;;13.27;4.22;;;;;;;;;;5081783;28;20126;-60
2023/10/06 11:39:31;;;;;;;8.55;2.70;;;;;;;;;;5081152;28;20072;-61
2023/10/06 11:42:16;;;;;;;10.27;3.95;;;;;;;;;;5098266;28;20060;-61
2023/10/06 11:44:43;;;;;;;7.75;3.17;;;;;;;;;;5082653;28;20076;-62
2023/10/06 11:47:09;;;;;;;11.95;4.18;;;;;;;;;;5082596;28;20052;-60
2023/10/06 11:49:52;;;;;;;12.57;4.22;;;;;;;;;;5081939;28;20176;-62
2023/10/06 11:52:18;;;;;;;9.02;3.28;;;;;;;;;;5083390;28;20546;-61
2023/10/06 11:54:46;;;;;;;10.60;3.25;;;;;;;;;;5082523;28;20137;-61
2023/10/06 11:57:16;;;;;;;7.28;3.30;;;;;;;;;;5082773;28;20071;-62
2023/10/06 11:59:49;;;;;;;9.02;3.47;;;;;;;;;;5081994;28;20053;-61
2023/10/06 12:02:16;;;;;;;15.13;3.67;;;;;;;;;;5083368;28;20626;-62
2023/10/06 12:04:43;;;;;;;8.32;2.97;;;;;;;;;;5081924;28;20569;-61
2023/10/06 12:07:20;;;;;;;14.43;3.85;;;;;;;;;;5082552;28;20449;-61
2023/10/06 12:09:48;;;;;;;8.98;3.13;;;;;;;;;;5082800;28;20057;-62
2023/10/06 12:12:18;;;;;;;8.73;3.15;;;;;;;;;;5082848;28;20287;-61
2023/10/06 12:14:45;;;;;;;8.20;3.35;;;;;;;;;;5082411;28;20052;-61
2023/10/06 12:17:14;;;;;;;8.50;3.05;;;;;;;;;;5081863;28;20506;-61
2023/10/06 12:19:44;;;;;;;14.43;4.00;;;;;;;;;;5081690;28;20123;-61
2023/10/06 12:22:10;;;;;;;12.30;4.35;;;;;;;;;;5082233;28;20280;-61
2023/10/06 12:24:42;;;;;;;10.90;3.35;;;;;;;;;;5081627;28;20165;-61
2023/10/06 12:27:09;;;;;;;8.80;3.63;;;;;;;;;;5081887;28;20045;-61
2023/10/06 12:29:36;;;;;;;9.30;3.42;;;;;;;;;;5081380;28;20511;-61
2023/10/06 12:32:02;;;;;;;8.90;3.75;;;;;;;;;;5081800;28;20129;-61
2023/10/06 12:34:31;;;;;;;8.25;3.38;;;;;;;;;;5081838;28;20522;-61
2023/10/06 12:37:02;;;;;;;9.18;3.33;;;;;;;;;;5082687;28;20143;-61
2023/10/06 12:39:34;;;;;;;9.68;3.47;;;;;;;;;;5080933;28;20133;-61
2023/10/06 12:42:03;;;;;;;9.77;4.10;;;;;;;;;;5084677;28;20059;-61
2023/10/06 12:44:30;;;;;;;10.55;3.95;;;;;;;;;;5085833;28;20052;-60
2023/10/06 12:47:03;;;;;;;7.90;3.33;;;;;;;;;;5084644;28;20194;-61
2023/10/06 12:49:33;;;;;;;10.70;3.88;;;;;;;;;;5094568;27;20063;-61
2023/10/06 12:51:59;;;;;;;8.57;3.03;;;;;;;;;;5081791;28;20158;-61
2023/10/06 12:54:26;;;;;;;11.02;3.78;;;;;;;;;;5070233;28;20668;-61
2023/10/06 12:56:52;;;;;;;6.53;3.00;;;;;;;;;;5073404;28;20193;-61
2023/10/06 12:59:19;;;;;;;7.72;3.15;;;;;;;;;;5085569;28;20068;-60
2023/10/06 13:01:48;;;;;;;13.52;3.80;;;;;;;;;;5083129;28;20206;-61
2023/10/06 13:04:15;;;;;;;14.80;4.32;;;;;;;;;;5083201;28;20052;-61
2023/10/06 13:06:42;;;;;;;10.20;3.10;;;;;;;;;;5082244;28;20060;-62
2023/10/06 13:09:17;;;;;;;11.10;3.85;;;;;;;;;;5085917;28;20537;-62
2023/10/06 13:11:43;;;;;;;11.98;3.88;;;;;;;;;;5083411;28;20595;-61
2023/10/06 13:14:09;;;;;;;7.15;3.53;;;;;;;;;;5083338;28;20048;-62
2023/10/06 13:16:36;;;;;;;10.57;3.00;;;;;;;;;;5082777;28;20151;-60
2023/10/06 13:19:04;;;;;;;12.63;3.45;;;;;;;;;;5085597;28;20075;-61
2023/10/06 13:21:30;;;;;;;9.23;3.10;;;;;;;;;;5083301;28;20510;-61
2023/10/06 13:23:59;;;;;;;9.10;3.00;;;;;;;;;;5073030;28;20172;-62
2023/10/06 13:26:35;;;;;;;9.77;3.60;;;;;;;;;;5078159;28;20088;-61
2023/10/06 13:29:09;;;;;;;9.52;3.20;;;;;;;;;;5084361;28;20056;-61
2023/10/06 13:31:37;;;;;;;15.13;3.53;;;;;;;;;;5083679;28;20060;-60
2023/10/06 13:34:04;;;;;;;7.68;2.40;;;;;;;;;;5083172;28;20056;-61
2023/10/06 13:36:31;;;;;;;7.28;3.25;;;;;;;;;;5083980;28;20494;-61
2023/10/06 13:38:57;;;;;;;16.48;3.20;;;;;;;;;;5085119;28;20075;-61
2023/10/06 13:41:23;;;;;;;10.38;3.05;;;;;;;;;;5084161;28;20133;-62
2023/10/06 13:43:50;;;;;;;6.82;3.30;;;;;;;;;;5082408;28;20147;-61
2023/10/06 13:46:17;;;;;;;9.65;2.83;;;;;;;;;;5083556;28;20053;-61
2023/10/06 13:48:44;;;;;;;11.27;3.20;;;;;;;;;;5083496;28;20063;-61
2023/10/06 13:51:11;;;;;;;8.93;3.47;;;;;;;;;;5069715;28;20057;-61
2023/10/06 13:53:41;;;;;;;10.15;2.90;;;;;;;;;;5082750;28;20143;-61
2023/10/06 13:56:07;;;;;;;10.98;3.25;;;;;;;;;;5082689;28;20057;-60
2023/10/06 13:58:34;;;;;;;7.40;3.22;;;;;;;;;;5083465;28;20053;-62
2023/10/06 14:01:00;;;;;;;11.45;3.78;;;;;;;;;;5081567;28;20049;-60
2023/10/06 14:03:28;;;;;;;8.73;2.65;;;;;;;;;;5081304;28;20404;-61
2023/10/06 14:05:57;;;;;;;12.15;3.33;;;;;;;;;;5080613;28;20465;-61
2023/10/06 14:08:26;;;;;;;8.23;3.22;;;;;;;;;;5079852;28;20552;-61
2023/10/06 14:10:52;;;;;;;13.82;3.08;;;;;;;;;;5083499;28;20144;-60
2023/10/06 14:13:27;;;;;;;8.25;2.80;;;;;;;;;;5082981;28;20048;-61
2023/10/06 14:18:25;;;;;;;9.50;3.65;;;;;;;;;;5081710;28;45369;-62
2023/10/06 14:20:52;;;;;;;10.30;2.95;;;;;;;;;;5079235;28;20127;-62
2023/10/06 14:23:23;;;;;;;5.82;2.88;;;;;;;;;;5072043;28;20136;-61
2023/10/06 14:25:52;;;;;;;9.63;3.25;;;;;;;;;;5080658;28;20056;-61
2023/10/06 14:28:22;;;;;;;7.68;3.03;;;;;;;;;;5081238;28;20055;-61
2023/10/06 14:30:51;;;;;;;8.82;3.15;;;;;;;;;;5079312;28;20064;-62
2023/10/06 14:33:38;;;;;;;15.95;3.67;;;;;;;;;;5079622;28;20050;-62
2023/10/06 14:46:49;;;;;;;10.43;3.17;;;;;;;;;;5035445;28;20071;-62
2023/10/06 14:49:25;;;;;;;14.55;3.83;;;;;;;;;;5040920;28;20137;-61
2023/10/06 14:51:57;;;;;;;9.35;2.95;;;;;;;;;;5027181;28;20062;-62
2023/10/06 14:54:30;;;;;;;10.55;3.20;;;;;;;;;;5036956;28;20228;-62
2023/10/06 14:56:58;;;;;;;10.55;3.03;;;;;;;;;;5038126;28;20061;-62
2023/10/06 14:59:24;;;;;;;13.73;3.83;;;;;;;;;;5040177;28;20064;-61
2023/10/06 15:01:54;;;;;;;5.60;2.97;;;;;;;;;;5037800;28;20136;-62
2023/10/06 15:04:21;;;;;;;14.65;4.05;;;;;;;;;;5038883;28;20507;-61